Time;durP1;ratioP1;P1;durP2;ratioP2;P2;SDS_P1;SDS_P2;PMS_P1;PMS_P2;Temp;Humidity;BMP_temperature;BMP_pressure;BME280_temperature;BME280_humidity;BME280_pressure;Samples;Min_cycle;Max_cycle;Signal;HPM_P1;HPM_P2
2021/05/13 00:01:06;;;;;;;13.63;11.40;;;;;;;;;;5037063;28;20269;-53
2021/05/13 00:03:32;;;;;;;15.70;11.03;;;;;;;;;;5033319;28;20226;-55
2021/05/13 00:05:59;;;;;;;12.40;10.43;;;;;;;;;;5033009;28;20272;-52
2021/05/13 00:08:25;;;;;;;13.33;11.27;;;;;;;;;;5033049;28;20209;-52
2021/05/13 00:10:53;;;;;;;13.27;11.37;;;;;;;;;;5032983;28;20220;-53
2021/05/13 00:13:19;;;;;;;14.60;12.77;;;;;;;;;;5033039;28;20230;-52
2021/05/13 00:15:46;;;;;;;14.97;12.23;;;;;;;;;;5031912;28;20698;-57
2021/05/13 00:18:13;;;;;;;16.93;13.37;;;;;;;;;;5032978;28;20213;-54
2021/05/13 00:20:41;;;;;;;15.13;13.53;;;;;;;;;;5032850;28;20208;-53
2021/05/13 00:23:08;;;;;;;17.97;14.00;;;;;;;;;;5032992;28;20232;-55
2021/05/13 00:25:35;;;;;;;21.17;17.47;;;;;;;;;;5032930;28;20583;-54
2021/05/13 00:28:02;;;;;;;23.83;18.23;;;;;;;;;;5032674;28;20221;-51
2021/05/13 00:30:28;;;;;;;25.60;19.53;;;;;;;;;;5032984;28;20209;-54
2021/05/13 00:32:55;;;;;;;28.07;20.97;;;;;;;;;;5042513;28;20220;-54
2021/05/13 00:35:23;;;;;;;27.30;20.37;;;;;;;;;;5052654;28;20222;-55
2021/05/13 00:37:50;;;;;;;28.37;21.50;;;;;;;;;;5052914;28;20210;-48
2021/05/13 00:40:19;;;;;;;24.57;21.47;;;;;;;;;;5051873;28;20207;-49
2021/05/13 00:42:46;;;;;;;25.93;21.97;;;;;;;;;;5052533;28;20683;-48
2021/05/13 00:45:13;;;;;;;29.33;22.77;;;;;;;;;;5052294;28;20597;-48
2021/05/13 00:47:47;;;;;;;33.33;23.13;;;;;;;;;;5052732;28;20238;-48
2021/05/13 00:50:13;;;;;;;27.53;21.43;;;;;;;;;;5050370;28;20200;-50
2021/05/13 00:52:41;;;;;;;25.50;20.07;;;;;;;;;;5052273;28;20208;-47
2021/05/13 00:55:09;;;;;;;25.37;21.30;;;;;;;;;;5052088;28;20212;-51
2021/05/13 00:57:36;;;;;;;24.20;20.67;;;;;;;;;;5052515;28;20216;-52
2021/05/13 01:00:17;;;;;;;23.83;19.47;;;;;;;;;;5052058;28;20230;-49
2021/05/13 01:02:44;;;;;;;24.20;18.27;;;;;;;;;;5052065;28;20203;-52
2021/05/13 01:05:11;;;;;;;22.37;19.17;;;;;;;;;;5051813;28;20243;-48
2021/05/13 01:07:38;;;;;;;18.73;16.30;;;;;;;;;;5036395;28;20563;-50
2021/05/13 01:10:05;;;;;;;22.90;17.37;;;;;;;;;;5032232;28;20204;-48
2021/05/13 01:12:32;;;;;;;22.13;16.07;;;;;;;;;;5032034;28;20212;-50
2021/05/13 01:14:59;;;;;;;22.50;16.13;;;;;;;;;;5031837;28;20246;-51
2021/05/13 01:17:38;;;;;;;20.37;16.33;;;;;;;;;;5031886;28;20210;-50
2021/05/13 01:20:05;;;;;;;20.23;16.50;;;;;;;;;;5031998;28;20304;-50
2021/05/13 01:22:32;;;;;;;20.37;17.03;;;;;;;;;;5032701;28;20199;-49
2021/05/13 01:24:59;;;;;;;20.63;17.57;;;;;;;;;;5052289;28;20234;-50
2021/05/13 01:27:25;;;;;;;21.97;18.37;;;;;;;;;;5052459;28;20210;-51
2021/05/13 01:29:53;;;;;;;25.80;19.60;;;;;;;;;;5051515;28;20680;-52
2021/05/13 01:32:20;;;;;;;24.77;20.27;;;;;;;;;;5036876;28;20210;-48
2021/05/13 01:34:47;;;;;;;21.20;17.70;;;;;;;;;;5031920;28;20277;-51
2021/05/13 01:37:14;;;;;;;20.83;17.57;;;;;;;;;;5032199;28;20585;-51
2021/05/13 01:39:41;;;;;;;21.67;18.07;;;;;;;;;;5041938;28;20229;-56
2021/05/13 01:42:08;;;;;;;20.57;16.00;;;;;;;;;;5051504;28;20211;-52
2021/05/13 01:44:34;;;;;;;21.20;17.53;;;;;;;;;;5051000;28;20850;-49
2021/05/13 01:47:01;;;;;;;23.63;17.80;;;;;;;;;;5051209;28;20254;-55
2021/05/13 01:49:28;;;;;;;19.33;16.97;;;;;;;;;;5051404;28;20287;-54
2021/05/13 01:51:54;;;;;;;19.40;15.90;;;;;;;;;;5051237;28;20247;-53
2021/05/13 01:54:21;;;;;;;20.17;16.03;;;;;;;;;;5051267;28;20229;-50
2021/05/13 01:56:48;;;;;;;20.47;15.27;;;;;;;;;;5049301;28;20572;-51
2021/05/13 01:59:15;;;;;;;21.43;15.13;;;;;;;;;;5051342;28;20212;-53
2021/05/13 02:01:41;;;;;;;17.77;14.97;;;;;;;;;;5050949;28;20212;-48
2021/05/13 02:04:08;;;;;;;18.03;14.43;;;;;;;;;;5050020;28;20888;-50
2021/05/13 02:06:34;;;;;;;16.27;14.07;;;;;;;;;;5051410;28;20205;-49
2021/05/13 02:09:01;;;;;;;17.63;14.77;;;;;;;;;;5051222;28;20718;-51
2021/05/13 02:11:28;;;;;;;17.70;14.03;;;;;;;;;;5051306;28;20208;-54
2021/05/13 02:13:55;;;;;;;18.17;13.27;;;;;;;;;;5049844;28;20228;-51
2021/05/13 02:16:21;;;;;;;17.67;14.00;;;;;;;;;;5050914;28;20612;-55
2021/05/13 02:18:48;;;;;;;17.70;14.17;;;;;;;;;;5051271;28;20211;-50
2021/05/13 02:21:14;;;;;;;16.53;13.20;;;;;;;;;;5037534;28;20212;-51
2021/05/13 02:23:42;;;;;;;17.13;14.30;;;;;;;;;;5031156;28;20262;-48
2021/05/13 02:26:08;;;;;;;16.07;13.40;;;;;;;;;;5030903;28;20249;-52
2021/05/13 02:28:34;;;;;;;16.23;13.83;;;19.10;99.90;;;;;;5029894;28;20210;-51
2021/05/13 02:31:02;;;;;;;14.67;13.10;;;;;;;;;;5050929;28;20236;-50
2021/05/13 02:33:28;;;;;;;15.40;12.97;;;10.00;99.90;;;;;;5051187;28;20758;-51
2021/05/13 02:35:54;;;;;;;17.23;12.97;;;9.90;99.90;;;;;;5050385;28;20856;-49
2021/05/13 02:38:20;;;;;;;15.97;13.03;;;9.90;99.90;;;;;;5051203;28;20324;-52
2021/05/13 02:40:46;;;;;;;15.80;12.63;;;9.80;81.70;;;;;;5050970;28;20210;-53
2021/05/13 02:43:13;;;;;;;18.73;13.97;;;;;;;;;;5050406;28;20603;-50
2021/05/13 02:45:39;;;;;;;17.43;13.73;;;;;;;;;;5049219;28;20236;-48
2021/05/13 02:48:07;;;;;;;14.53;13.03;;;;;;;;;;5050698;28;20232;-52
2021/05/13 02:50:33;;;;;;;20.27;13.67;;;9.70;53.40;;;;;;5050648;28;20230;-48
2021/05/13 02:53:00;;;;;;;17.13;15.17;;;9.60;70.40;;;;;;5050701;28;20210;-53
2021/05/13 02:55:26;;;;;;;17.70;14.87;;;9.60;99.90;;;;;;5050787;28;20213;-52
2021/05/13 02:57:52;;;;;;;22.57;17.70;;;9.50;67.70;;;;;;5050248;28;20232;-51
2021/05/13 03:00:25;;;;;;;25.67;18.03;;;9.40;99.90;;;;;;5050636;28;20579;-48
2021/05/13 03:02:52;;;;;;;18.53;16.53;;;9.30;99.90;;;;;;5042694;28;20241;-51
2021/05/13 03:05:19;;;;;;;20.87;17.07;;;9.30;88.90;;;;;;5031592;28;20280;-48
2021/05/13 03:07:47;;;;;;;18.53;15.70;;;9.20;83.50;;;;;;5030752;28;20229;-49
2021/05/13 03:10:21;;;;;;;20.37;16.23;;;9.20;80.30;;;;;;5030289;28;20218;-49
2021/05/13 03:12:49;;;;;;;19.07;16.00;;;9.10;82.10;;;;;;5031101;28;20332;-51
2021/05/13 03:15:15;;;;;;;22.07;16.50;;;9.10;88.30;;;;;;5033395;28;20585;-50
2021/05/13 03:17:41;;;;;;;23.37;17.93;;;9.10;90.30;;;;;;5035655;28;20206;-53
2021/05/13 03:20:10;;;;;;;29.67;21.20;;;9.10;92.90;;;;;;5038564;28;20237;-51
2021/05/13 03:22:37;;;;;;;25.17;19.53;;;9.00;96.00;;;;;;5054071;28;20209;-48
2021/05/13 03:25:05;;;;;;;24.90;19.20;;;9.00;99.40;;;;;;5054005;28;20279;-50
2021/05/13 03:27:42;;;;;;;25.27;19.60;;;9.00;99.90;;;;;;5054271;28;20216;-50
2021/05/13 03:30:09;;;;;;;24.70;19.43;;;9.00;99.90;;;;;;5053596;28;20205;-51
2021/05/13 03:32:36;;;;;;;29.40;19.23;;;9.00;99.90;;;;;;5053808;28;20215;-52
2021/05/13 03:35:02;;;;;;;26.90;20.00;;;8.90;99.90;;;;;;5053733;28;20226;-49
2021/05/13 03:37:28;;;;;;;26.93;21.17;;;8.90;99.90;;;;;;5038030;28;20238;-50
2021/05/13 03:39:56;;;;;;;25.70;19.33;;;8.90;99.90;;;;;;5033671;28;20942;-49
2021/05/13 03:42:23;;;;;;;25.00;19.90;;;9.00;99.90;;;;;;5033661;28;20679;-53
2021/05/13 03:44:49;;;;;;;26.23;19.87;;;8.90;99.90;;;;;;5033274;28;20222;-51
2021/05/13 03:47:16;;;;;;;24.93;19.30;;;8.90;99.90;;;;;;5033746;28;20224;-48
2021/05/13 03:49:42;;;;;;;30.20;21.00;;;8.90;99.90;;;;;;5033062;28;20257;-53
2021/05/13 03:52:08;;;;;;;28.50;18.77;;;8.80;99.90;;;;;;5033563;28;20210;-50
2021/05/13 03:54:34;;;;;;;29.07;21.53;;;8.80;99.90;;;;;;5032508;28;20576;-48
2021/05/13 03:57:02;;;;;;;30.63;22.73;;;8.90;99.90;;;;;;5033708;28;20202;-48
2021/05/13 03:59:33;;;;;;;30.57;22.30;;;8.80;99.90;;;;;;5033161;28;20683;-52
2021/05/13 04:02:05;;;;;;;31.13;22.77;;;8.80;99.90;;;;;;5039965;28;20654;-49
2021/05/13 04:04:32;;;;;;;38.20;24.80;;;8.80;99.90;;;;;;5052850;28;20218;-53
2021/05/13 04:06:58;;;;;;;30.73;23.47;;;8.80;99.90;;;;;;5053255;28;20213;-50
2021/05/13 04:09:25;;;;;;;31.40;22.27;;;8.80;99.90;;;;;;5053384;28;20247;-50
2021/05/13 04:11:52;;;;;;;31.53;21.70;;;8.80;99.90;;;;;;5051527;28;20263;-52
2021/05/13 04:14:20;;;;;;;32.03;23.03;;;8.70;99.90;;;;;;5052748;28;20222;-53
2021/05/13 04:16:52;;;;;;;34.20;23.53;;;8.70;99.90;;;;;;5053096;28;20642;-51
2021/05/13 04:19:18;;;;;;;37.10;24.83;;;8.60;99.90;;;;;;5052696;28;20248;-55
2021/05/13 04:21:44;;;;;;;41.20;26.00;;;8.60;99.90;;;;;;5052975;28;20206;-57
2021/05/13 04:24:11;;;;;;;37.80;25.70;;;8.50;99.90;;;;;;5052466;28;20260;-52
2021/05/13 04:26:39;;;;;;;38.77;26.17;;;8.50;99.90;;;;;;5047479;28;20308;-50
2021/05/13 04:29:05;;;;;;;42.97;26.97;;;8.60;99.90;;;;;;5032958;28;20214;-49
2021/05/13 04:31:33;;;;;;;37.77;26.37;;;8.60;99.90;;;;;;5032640;28;20229;-50
2021/05/13 04:33:59;;;;;;;43.10;28.13;;;8.60;99.90;;;;;;5032150;28;20229;-51
2021/05/13 04:36:25;;;;;;;42.53;29.53;;;8.60;99.90;;;;;;5051696;28;20209;-50
2021/05/13 04:38:51;;;;;;;47.10;32.37;;;8.60;99.90;;;;;;5052579;28;20232;-51
2021/05/13 04:41:17;;;;;;;52.97;32.70;;;8.50;99.90;;;;;;5052465;28;20212;-48
2021/05/13 04:43:43;;;;;;;49.20;32.23;;;8.50;99.90;;;;;;5041767;28;20237;-55
2021/05/13 04:46:09;;;;;;;39.93;28.70;;;8.50;99.90;;;;;;5032091;28;20213;-49
2021/05/13 04:48:53;;;;;;;36.00;25.80;;;8.60;99.90;;;;;;5032774;28;20205;-53
2021/05/13 04:51:20;;;;;;;35.47;24.83;;;8.70;99.90;;;;;;5032003;28;20210;-56
2021/05/13 04:53:47;;;;;;;35.10;25.43;;;8.70;99.90;;;;;;5032560;28;20222;-53
2021/05/13 04:56:13;;;;;;;36.80;26.83;;;8.80;99.90;;;;;;5032014;28;20206;-54
2021/05/13 04:58:39;;;;;;;37.43;27.87;;;8.90;99.90;;;;;;5032276;28;20202;-53
2021/05/13 05:01:06;;;;;;;42.10;28.53;;;9.00;99.90;;;;;;5030925;28;20263;-53
2021/05/13 05:03:32;;;;;;;38.83;29.73;;;9.10;99.90;;;;;;5032455;28;20227;-53
2021/05/13 05:05:59;;;;;;;42.03;30.10;;;9.20;99.90;;;;;;5032027;28;20206;-54
2021/05/13 05:08:25;;;;;;;44.57;31.07;;;9.20;99.90;;;;;;5032285;28;20217;-55
2021/05/13 05:10:51;;;;;;;41.77;30.13;;;9.30;1.00;;;;;;5031992;28;20214;-55
2021/05/13 05:13:17;;;;;;;39.50;29.53;;;9.40;1.00;;;;;;5031756;28;20227;-53
2021/05/13 05:15:44;;;;;;;38.87;28.40;;;9.50;1.00;;;;;;5032100;28;20207;-55
2021/05/13 05:18:17;;;;;;;41.53;30.07;;;9.50;99.90;;;;;;5031762;28;20671;-54
2021/05/13 05:20:43;;;;;;;44.57;30.13;;;9.60;1.00;;;;;;5032026;28;20214;-54
2021/05/13 05:23:10;;;;;;;38.30;30.33;;;9.70;1.00;;;;;;5031908;28;20230;-54
2021/05/13 05:25:36;;;;;;;40.90;30.00;;;9.80;1.00;;;;;;5031632;28;20225;-50
2021/05/13 05:28:02;;;;;;;41.37;30.37;;;9.90;99.90;;;;;;5031666;28;20212;-51
2021/05/13 05:30:32;;;;;;;39.37;29.90;;;10.00;99.90;;;;;;5031866;28;20207;-48
2021/05/13 05:32:59;;;;;;;39.03;29.63;;;10.10;99.90;;;;;;5031855;28;20205;-48
2021/05/13 05:35:26;;;;;;;38.70;29.10;;;10.20;1.00;;;;;;5031648;28;20206;-48
2021/05/13 05:37:52;;;;;;;41.33;30.30;;;10.30;99.90;;;;;;5031333;28;20312;-54
2021/05/13 05:40:19;;;;;;;38.33;29.60;;;10.40;99.90;;;;;;5032811;28;20232;-56
2021/05/13 05:42:46;;;;;;;36.87;29.10;;;10.50;99.90;;;;;;5033771;28;20209;-53
2021/05/13 05:45:13;;;;;;;38.53;29.53;;;10.60;99.90;;;;;;5031769;28;20229;-53
2021/05/13 05:47:39;;;;;;;42.63;30.23;;;10.70;99.90;;;;;;5032081;28;20237;-53
2021/05/13 05:50:06;;;;;;;49.07;33.60;;;10.80;99.90;;;;;;5031811;28;20217;-49
2021/05/13 05:52:33;;;;;;;45.93;32.87;;;10.80;99.90;;;;;;5031485;28;20227;-50
2021/05/13 05:54:59;;;;;;;43.70;34.00;;;10.80;99.90;;;;;;5031339;28;20735;-52
2021/05/13 05:57:26;;;;;;;41.50;31.77;;;10.90;99.90;;;;;;5031314;28;20211;-49
2021/05/13 05:59:52;;;;;;;40.37;30.87;;;10.90;99.90;;;;;;5031419;28;20239;-54
2021/05/13 06:02:18;;;;;;;41.83;31.13;;;11.00;99.90;;;;;;5031420;28;20211;-53
2021/05/13 06:04:45;;;;;;;37.63;28.10;;;11.10;99.90;;;;;;5031171;28;20254;-55
2021/05/13 06:07:11;;;;;;;36.70;28.30;;;11.20;99.90;;;;;;5031152;28;20205;-49
2021/05/13 06:09:38;;;;;;;37.40;28.33;;;11.30;99.90;;;;;;5031151;28;20214;-56
2021/05/13 06:12:04;;;;;;;37.80;28.83;;;11.50;99.90;;;;;;5031504;28;20209;-48
2021/05/13 06:14:31;;;;;;;34.47;26.77;;;11.60;99.90;;;;;;5031056;28;20221;-52
2021/05/13 06:16:58;;;;;;;34.07;25.47;;;11.60;99.90;;;;;;5031165;28;20213;-51
2021/05/13 06:19:24;;;;;;;29.77;23.40;;;;;;;;;;5031227;28;20210;-50
2021/05/13 06:21:51;;;;;;;31.03;23.67;;;;;;;;;;5030975;28;20214;-52
2021/05/13 06:24:18;;;;;;;27.13;22.07;;;;;;;;;;5031013;28;20230;-53
2021/05/13 06:26:45;;;;;;;24.97;20.90;;;;;;;;;;5030982;28;20263;-50
2021/05/13 06:29:12;;;;;;;27.17;21.73;;;;;;;;;;5031246;28;20225;-52
2021/05/13 06:31:39;;;;;;;24.07;19.07;;;;;;;;;;5031126;28;20260;-50
2021/05/13 06:34:05;;;;;;;23.20;19.27;;;;;;;;;;5031478;28;20234;-51
2021/05/13 06:36:32;;;;;;;23.90;19.10;;;;;;;;;;5030691;28;20236;-56
2021/05/13 06:38:58;;;;;;;25.17;17.40;;;;;;;;;;5031450;28;20632;-51
2021/05/13 06:41:25;;;;;;;20.47;17.20;;;;;;;;;;5030979;28;20232;-55
2021/05/13 06:43:51;;;;;;;25.43;15.57;;;;;;;;;;5031216;28;20230;-50
2021/05/13 06:46:19;;;;;;;18.93;15.07;;;;;;;;;;5031023;28;20217;-57
2021/05/13 06:48:47;;;;;;;15.93;13.53;;;;;;;;;;5031714;28;20210;-52
2021/05/13 06:51:13;;;;;;;16.00;13.67;;;;;;;;;;5034829;28;20659;-53
2021/05/13 06:53:40;;;;;;;16.27;13.87;;;;;;;;;;5035327;28;20226;-55
2021/05/13 06:56:06;;;;;;;15.37;13.20;;;;;;;;;;5035148;28;20214;-57
2021/05/13 06:58:33;;;;;;;13.83;11.73;;;;;;;;;;5034922;28;20206;-54
2021/05/13 07:01:00;;;;;;;13.33;11.53;;;;;;;;;;5034697;28;20220;-53
2021/05/13 07:03:26;;;;;;;14.67;11.97;;;;;;;;;;5033300;28;20231;-54
2021/05/13 07:05:54;;;;;;;15.77;12.03;;;;;;;;;;5034220;28;20289;-53
2021/05/13 07:08:20;;;;;;;14.17;11.80;;;;;;;;;;5034594;28;20214;-54
2021/05/13 07:10:47;;;;;;;14.43;12.20;;;;;;;;;;5034674;28;20208;-54
2021/05/13 07:13:13;;;;;;;19.73;12.00;;;;;;;;;;5032373;28;20620;-66
2021/05/13 07:15:40;;;;;;;14.17;9.37;;;;;;;;;;5041182;28;20197;-66
2021/05/13 07:18:12;;;;;;;11.67;9.33;;;;;;;;;;5053913;28;20219;-66
2021/05/13 07:20:38;;;;;;;10.67;9.57;;;;;;;;;;5052357;28;20212;-66
2021/05/13 07:23:05;;;;;;;11.87;9.27;;;;;;;;;;5054177;28;20228;-66
2021/05/13 07:25:32;;;;;;;9.70;8.70;;;;;;;;;;5054092;28;20221;-67
2021/05/13 07:27:59;;;;;;;8.33;6.97;;;;;;;;;;5054189;28;20220;-67
2021/05/13 07:30:25;;;;;;;11.43;9.40;;;;;;;;;;5045492;28;20559;-67
2021/05/13 07:32:52;;;;;;;9.60;7.77;;;;;;;;;;5033942;28;20214;-68
2021/05/13 07:35:19;;;;;;;12.13;8.70;;;;;;;;;;5034054;28;20667;-64
2021/05/13 07:37:45;;;;;;;11.90;8.37;;;;;;;;;;5034671;28;20616;-67
2021/05/13 07:40:13;;;;;;;13.87;9.60;;;;;;;;;;5032372;28;20616;-66
2021/05/13 07:42:40;;;;;;;11.60;9.47;;;;;;;;;;5033638;28;20222;-67
2021/05/13 07:45:07;;;;;;;10.77;7.90;;;;;;;;;;5033959;28;20241;-63
2021/05/13 07:47:37;;;;;;;12.57;9.83;;;;;;;;;;5043833;28;20198;-66
2021/05/13 07:50:04;;;;;;;11.70;8.73;;;;;;;;;;5053069;28;20225;-66
2021/05/13 07:52:31;;;;;;;12.30;9.13;;;;;;;;;;5053128;28;20206;-66
2021/05/13 07:54:57;;;;;;;10.30;8.60;;;;;;;;;;5042945;28;20300;-66
2021/05/13 07:57:25;;;;;;;13.57;9.77;;;;;;;;;;5032791;28;20209;-67
2021/05/13 07:59:51;;;;;;;9.43;8.37;;;;;;;;;;5032789;28;20593;-65
2021/05/13 08:02:18;;;;;;;12.60;9.47;;;;;;;;;;5031885;28;20268;-68
2021/05/13 08:04:44;;;;;;;9.97;8.27;;;;;;;;;;5033155;28;20623;-67
2021/05/13 08:07:11;;;;;;;10.60;8.57;;;;;;;;;;5032799;28;20663;-66
2021/05/13 08:09:37;;;;;;;10.77;8.50;;;;;;;;;;5033052;28;20206;-66
2021/05/13 08:12:04;;;;;;;10.20;8.00;;;;;;;;;;5031218;28;20574;-67
2021/05/13 08:14:32;;;;;;;9.17;7.40;;;;;;;;;;5044490;28;20264;-66
2021/05/13 08:16:58;;;;;;;10.67;8.00;;;;;;;;;;5053062;28;20201;-67
2021/05/13 08:19:25;;;;;;;11.03;8.33;;;;;;;;;;5052928;28;20301;-64
2021/05/13 08:21:52;;;;;;;12.03;8.37;;;;;;;;;;5052571;28;20202;-65
2021/05/13 08:24:18;;;;;;;8.40;7.50;;;;;;;;;;5052171;28;20600;-66
2021/05/13 08:26:45;;;;;;;9.87;7.67;;;;;;;;;;5052411;28;20232;-63
2021/05/13 08:29:11;;;;;;;10.57;7.93;;;;;;;;;;5036616;28;20208;-66
2021/05/13 08:31:39;;;;;;;11.90;7.93;;;;;;;;;;5032317;28;20210;-65
2021/05/13 08:34:05;;;;;;;9.97;7.23;;;;;;;;;;5032273;28;20276;-66
2021/05/13 08:36:32;;;;;;;11.90;8.20;;;;;;;;;;5032259;28;20284;-67
2021/05/13 08:38:58;;;;;;;10.97;8.23;;;;;;;;;;5032400;28;20260;-65
2021/05/13 08:41:25;;;;;;;11.73;8.40;;;;;;;;;;5038379;28;20275;-65
2021/05/13 08:43:52;;;;;;;21.43;16.33;;;;;;;;;;5044522;28;20234;-65
2021/05/13 08:46:19;;;;;;;9.47;7.80;;;;;;;;;;5032403;28;20213;-63
2021/05/13 08:48:47;;;;;;;11.40;8.37;;;;;;;;;;5032401;28;20225;-63
2021/05/13 08:51:14;;;;;;;11.97;8.40;;;;;;;;;;5031597;28;20206;-65
2021/05/13 08:53:50;;;;;;;9.70;8.70;;;;;;;;;;5031898;28;20875;-65
2021/05/13 08:56:17;;;;;;;12.10;8.90;;;;;;;;;;5031636;28;20276;-64
2021/05/13 08:58:44;;;;;;;10.27;9.07;;;;;;;;;;5031828;28;20293;-64
2021/05/13 09:01:14;;;;;;;9.90;8.10;;;;;;;;;;5032071;28;20264;-64
2021/05/13 09:03:41;;;;;;;10.30;7.53;;;;;;;;;;5031682;28;20349;-63
2021/05/13 09:06:09;;;;;;;10.30;8.37;;;;;;;;;;5032032;28;20210;-63
2021/05/13 09:08:36;;;;;;;9.40;7.53;;;;;;;;;;5031242;28;20214;-64
2021/05/13 09:11:12;;;;;;;11.97;7.10;;;;;;;;;;5032045;28;20549;-66
2021/05/13 09:13:39;;;;;;;12.03;8.27;;;;;;;;;;5031532;28;20230;-66
2021/05/13 09:16:27;;;;;;;8.93;8.00;;;;;;;;;;5031593;28;20825;-65
2021/05/13 09:18:53;;;;;;;11.23;8.33;;;;;;;;;;5027092;28;20262;-66
2021/05/13 09:21:21;;;;;;;8.63;7.53;;;;;;;;;;5051089;28;20272;-67
2021/05/13 09:23:47;;;;;;;8.80;7.83;;;;;;;;;;5051251;28;20754;-65
2021/05/13 09:26:16;;;;;;;8.37;7.57;;;;;;;;;;5051481;28;20209;-56
2021/05/13 09:28:43;;;;;;;7.77;6.50;;;;;;;;;;5051759;28;20251;-54
2021/05/13 09:31:09;;;;;;;7.73;5.30;;;;;;;;;;5051292;28;20209;-50
2021/05/13 09:33:38;;;;;;;7.53;6.30;;;;;;;;;;5051351;28;20229;-60
2021/05/13 09:36:17;;;;;;;7.33;5.20;;;;;;;;;;5035359;28;20230;-60
2021/05/13 09:38:45;;;;;;;5.33;4.47;;;;;;;;;;5031970;28;20209;-63
2021/05/13 09:41:12;;;;;;;7.23;4.33;;;;;;;;;;5033525;28;20212;-64
2021/05/13 09:43:39;;;;;;;9.10;4.77;;;;;;;;;;5035624;28;20236;-63
2021/05/13 09:46:06;;;;;;;6.47;4.10;;;;;;;;;;5035294;28;20226;-62
2021/05/13 09:48:37;;;;;;;5.50;3.70;;;;;;;;;;5032591;28;20258;-66
2021/05/13 09:51:16;;;;;;;6.53;4.50;;;;;;;;;;5032997;28;20214;-61
2021/05/13 09:53:43;;;;;;;7.43;5.23;;;;;;;;;;5051184;28;20229;-58
2021/05/13 09:56:23;;;;;;;9.00;3.83;;;;;;;;;;5051654;28;20202;-59
2021/05/13 09:58:50;;;;;;;6.90;4.27;;;;;;;;;;5051666;28;20205;-61
2021/05/13 10:01:16;;;;;;;6.57;3.13;;;;;;;;;;5038610;28;20247;-59
2021/05/13 10:03:44;;;;;;;5.87;3.17;;;;;;;;;;5030943;28;20230;-63
2021/05/13 10:06:11;;;;;;;9.77;3.17;;;;;;;;;;5030258;28;20219;-58
2021/05/13 10:08:37;;;;;;;7.47;3.10;;;;;;;;;;5030672;28;20206;-58
2021/05/13 10:11:05;;;;;;;4.43;2.30;;;;;;;;;;5031279;28;20210;-59
2021/05/13 10:13:33;;;;;;;6.87;2.90;;;;;;;;;;5031146;28;20221;-55
2021/05/13 10:16:00;;;;;;;3.10;2.20;;;;;;;;;;5035867;28;20205;-63
2021/05/13 10:18:29;;;;;;;5.40;2.20;;;;;;;;;;5051220;28;20247;-62
2021/05/13 10:20:57;;;;;;;6.27;2.00;;;;;;;;;;5051006;28;20209;-59
2021/05/13 10:23:24;;;;;;;4.37;2.43;;;;;;;;;;5048098;28;20340;-61
2021/05/13 10:25:51;;;;;;;5.07;2.53;;;;;;;;;;5054361;28;20944;-61
2021/05/13 10:28:17;;;;;;;6.47;3.10;;;;;;;;;;5055150;28;20216;-59
2021/05/13 10:30:58;;;;;;;4.93;2.63;;;;;;;;;;5055142;28;20201;-60
2021/05/13 10:33:25;;;;;;;4.03;2.00;;;;;;;;;;5055035;28;20259;-61
2021/05/13 10:36:05;;;;;;;5.20;2.37;;;;;;;;;;5054808;28;20202;-63
2021/05/13 10:38:42;;;;;;;5.30;1.70;;;;;;;;;;5055210;28;20205;-63
2021/05/13 10:41:32;;;;;;;4.67;2.87;;;;;;;;;;5040475;28;20206;-64
2021/05/13 10:43:58;;;;;;;6.13;2.50;;;;;;;;;;5034563;28;20233;-62
2021/05/13 10:46:29;;;;;;;6.10;2.10;;;;;;;;;;5035240;28;20221;-64
2021/05/13 10:49:11;;;;;;;4.37;2.07;;;;;;;;;;5040802;28;20232;-61
2021/05/13 10:51:37;;;;;;;4.30;2.20;;;;;;;;;;5046557;28;20267;-62
2021/05/13 10:54:04;;;;;;;4.73;2.57;;;;;;;;;;5054183;28;20314;-62
2021/05/13 10:56:36;;;;;;;9.43;2.83;;;;;;;;;;5055058;28;20557;-61
2021/05/13 10:59:16;;;;;;;4.93;2.60;;;;;;;;;;5053027;28;20717;-61
2021/05/13 11:01:46;;;;;;;7.43;3.10;;;;;;;;;;5054006;28;20206;-61
2021/05/13 11:04:40;;;;;;;6.03;2.60;;;;;;;;;;5054059;28;20230;-55
2021/05/13 11:07:07;;;;;;;7.10;2.70;;;;;;;;;;5034548;28;20207;-60
2021/05/13 11:09:53;;;;;;;5.33;2.50;;;;;;;;;;5033729;28;20209;-60
2021/05/13 11:12:20;;;;;;;6.77;2.47;;;;;;;;;;5034419;28;20205;-62
2021/05/13 11:15:06;;;;;;;5.03;2.47;;;;;;;;;;5046111;28;20257;-61
2021/05/13 11:18:05;;;;;;;5.77;2.60;;;;;;;;;;5054271;28;20210;-58
2021/05/13 11:20:33;;;;;;;7.50;2.50;;;;;;;;;;4952906;28;20212;-56
2021/05/13 11:23:00;;;;;;;5.37;2.10;;;;;;;;;;5033015;28;20205;-56
2021/05/13 11:25:34;;;;;;;6.80;1.97;;;;;;;;;;5053799;28;20249;-58
2021/05/13 11:28:01;;;;;;;3.23;2.27;;;;;;;;;;5054111;28;20221;-65
2021/05/13 11:30:28;;;;;;;6.07;2.10;;;;;;;;;;5044430;28;20256;-65
2021/05/13 11:32:55;;;;;;;3.93;1.80;;;;;;;;;;5033840;28;20214;-65
2021/05/13 11:35:22;;;;;;;4.77;1.70;;;;;;;;;;5032087;28;20198;-65
2021/05/13 11:37:51;;;;;;;3.23;1.90;;;;;;;;;;5033682;28;20206;-65
2021/05/13 11:40:19;;;;;;;4.27;2.20;;;;;;;;;;5033820;28;20207;-65
2021/05/13 11:42:46;;;;;;;4.80;1.80;;;;;;;;;;5033317;28;20206;-68
2021/05/13 11:45:15;;;;;;;3.63;1.70;;;;;;;;;;5035155;28;20755;-67
2021/05/13 11:47:42;;;;;;;2.23;1.30;;;;;;;;;;5052470;28;20198;-66
2021/05/13 11:50:09;;;;;;;3.80;1.50;;;;;;;;;;5053490;28;20205;-66
2021/05/13 11:52:36;;;;;;;3.50;1.67;;;;;;;;;;5053220;28;20209;-65
2021/05/13 11:55:03;;;;;;;3.47;1.47;;;;;;;;;;5053097;28;20225;-65
2021/05/13 11:57:30;;;;;;;3.83;1.50;;;;;;;;;;5053086;28;20259;-64
2021/05/13 11:59:56;;;;;;;5.10;1.40;;;;;;;;;;5053169;28;20209;-65
2021/05/13 12:02:23;;;;;;;5.53;1.33;;;;;;;;;;5053130;28;20666;-65
2021/05/13 12:04:49;;;;;;;4.33;1.60;;;;;;;;;;5050660;28;20272;-65
2021/05/13 12:07:16;;;;;;;4.60;2.27;;;;;;;;;;5053164;28;20209;-65
2021/05/13 12:09:49;;;;;;;3.47;1.70;;;;;;;;;;5052721;28;20679;-66
2021/05/13 12:12:22;;;;;;;3.50;2.13;;;;;;;;;;5053163;28;20213;-66
2021/05/13 12:14:51;;;;;;;2.93;1.57;;;;;;;;;;5052911;28;20260;-66
2021/05/13 12:17:20;;;;;;;3.23;1.47;;;;;;;;;;5053580;28;20202;-66
2021/05/13 12:19:47;;;;;;;1.80;1.30;;;;;;;;;;5050651;28;20206;-64
2021/05/13 12:22:14;;;;;;;2.83;1.20;;;;;;;;;;5051832;28;20209;-63
2021/05/13 12:24:42;;;;;;;2.73;1.20;;;;;;;;;;5051830;28;20229;-65
2021/05/13 12:27:10;;;;;;;3.17;1.20;;;;;;;;;;5052820;28;20201;-61
2021/05/13 12:29:40;;;;;;;4.37;1.47;;;;;;;;;;5052528;28;20209;-63
2021/05/13 12:32:07;;;;;;;2.30;1.20;;;;;;;;;;5052731;28;20240;-64
2021/05/13 12:34:35;;;;;;;4.33;1.40;;;;;;;;;;5051654;28;20709;-64
2021/05/13 12:37:02;;;;;;;4.40;1.30;;;;;;;;;;5033122;28;20210;-71
2021/05/13 12:39:29;;;;;;;3.87;1.30;;;;;;;;;;5031832;28;20206;-65
2021/05/13 12:41:56;;;;;;;5.00;1.63;;;;;;;;;;5032277;28;20242;-64
2021/05/13 12:44:26;;;;;;;4.13;1.60;;;;;;;;;;5031785;28;20237;-65
2021/05/13 12:46:54;;;;;;;4.40;1.87;;;;;;;;;;5046050;28;20201;-64
2021/05/13 12:49:23;;;;;;;6.27;1.70;;;;;;;;;;5051969;28;20259;-66
2021/05/13 12:51:59;;;;;;;3.03;1.40;;;;;;;;;;5051767;28;20299;-65
2021/05/13 12:54:26;;;;;;;4.47;2.13;;;;;;;;;;5051645;28;20641;-64
2021/05/13 12:56:53;;;;;;;41.60;29.77;;;;;;;;;;5052339;28;20257;-64
2021/05/13 12:59:19;;;;;;;5.13;2.27;;;;;;;;;;5052056;28;20210;-64
2021/05/13 13:01:57;;;;;;;7.47;4.50;;;;;;;;;;5051883;28;20685;-63
2021/05/13 13:04:24;;;;;;;7.43;4.80;;;;;;;;;;5051139;28;20251;-64
2021/05/13 13:06:52;;;;;;;6.50;4.80;;;;;;;;;;5051634;28;20256;-65
2021/05/13 13:09:31;;;;;;;8.17;5.70;;;;;;;;;;5051660;28;20210;-63
2021/05/13 13:12:01;;;;;;;10.37;5.67;;;;;;;;;;5051723;28;20208;-66
2021/05/13 13:14:33;;;;;;;9.00;5.90;;;;;;;;;;5050968;28;20717;-65
2021/05/13 13:17:01;;;;;;;6.87;5.47;;;;;;;;;;5052022;28;20207;-63
2021/05/13 13:19:27;;;;;;;8.23;5.47;;;;;;;;;;5051522;28;20210;-63
2021/05/13 13:22:00;;;;;;;6.07;4.57;;;;;;;;;;5051625;28;20743;-63
2021/05/13 13:24:27;;;;;;;6.80;6.00;;;;;;;;;;5051066;28;20232;-63
2021/05/13 13:27:00;;;;;;;10.00;6.00;;;;;;;;;;5051646;28;20205;-65
2021/05/13 13:29:27;;;;;;;6.87;5.30;;;;;;;;;;5051764;28;20218;-65
2021/05/13 13:31:57;;;;;;;7.23;5.90;;;;;;;;;;5051351;28;20249;-65
2021/05/13 13:34:34;;;;;;;8.97;5.67;;;;;;;;;;5051285;28;20230;-64
2021/05/13 13:37:00;;;;;;;8.27;5.27;;;;;;;;;;5051853;28;20724;-64
2021/05/13 13:39:27;;;;;;;5.23;4.57;;;;;;;;;;5051233;28;20206;-66
2021/05/13 13:41:53;;;;;;;7.43;5.20;;;;;;;;;;5051660;28;20260;-63
2021/05/13 13:44:20;;;;;;;6.07;4.90;;;;;;;;;;5050895;28;20241;-64
2021/05/13 13:46:47;;;;;;;9.03;6.23;;;;;;;;;;5052545;28;20253;-64
2021/05/13 13:49:13;;;;;;;7.53;6.60;;;;;;;;;;5051885;28;20201;-65
2021/05/13 13:51:41;;;;;;;7.53;5.00;;;;;;;;;;5052789;28;20208;-65
2021/05/13 13:54:07;;;;;;;8.90;5.33;;;;;;;;;;5050384;28;20237;-64
2021/05/13 13:56:34;;;;;;;5.50;4.80;;;;;;;;;;5054087;28;20218;-69
2021/05/13 13:59:00;;;;;;;8.43;5.67;;;;;;;;;;5066059;28;20206;-68
2021/05/13 14:01:26;;;;;;;10.53;6.77;;;;;;;;;;5066707;28;20202;-65